• Join FlightAware (Why Join?)
  • Login
  • US Flag 
10:33AM EDT


 

Airport Tracker/Info


-or-


 

Live Flight TrackerFlight Track Log ✈ N516QS ✈ 24-May-2013 ✈ PGUM - KPHX

Flight Track Log - Related Links

Times and Time Zones

All times are in EDT time to prevent confusion due to time zone crossing. See the N516QS flight status page for this flight to view local times or setup timezone preferences in your user account.

Time Position Orientation Groundspeed Altitude Reporting Facility
EDT Latitude Longitude Course Direction KTS MPH feet Rate Location/Type
08:23PM 13.4833 144.8167 44° Northeast 190 219 1,400  Level Guam Center
08:24PM 13.5167 144.8500 44° Northeast 190 219 3,500 2,220 Climbing Guam Center
08:25PM 13.5500 144.9000 56° Northeast 240 276 5,900 2,580 Climbing Guam Center
08:26PM 13.6167 144.9500 36° Northeast 280 322 8,700 2,400 Climbing Guam Center
08:27PM 13.6833 145.0000 36° Northeast 300 345 10,700 1,560 Climbing Guam Center
08:28PM 13.7667 145.0500 30° Northeast 380 437 11,900 1,380 Climbing Guam Center
08:29PM 13.8500 145.1167 38° Northeast 380 437 13,600 1,860 Climbing Guam Center
08:30PM 13.9333 145.1833 38° Northeast 380 437 15,700 1,800 Climbing Guam Center
08:31PM 14.0167 145.2500 38° Northeast 380 437 17,200 1,320 Climbing Guam Center
08:32PM 14.1000 145.3167 38° Northeast 380 437 18,400 1,200 Climbing Guam Center
08:33PM 14.2000 145.3833 33° Northeast 420 483 19,700 1,260 Climbing Guam Center
08:34PM 14.2833 145.4500 38° Northeast 420 483 21,000 1,320 Climbing Guam Center
08:35PM 14.3833 145.5167 33° Northeast 430 495 22,400 1,440 Climbing Guam Center
08:36PM 14.4833 145.6000 39° Northeast 440 506 23,900 1,440 Climbing Guam Center
08:37PM 14.5833 145.6667 33° Northeast 450 518 25,300 1,200 Climbing Guam Center
08:38PM 14.7000 145.7500 35° Northeast 460 529 26,300 900 Climbing Guam Center
08:39PM 14.8000 145.8333 39° Northeast 470 541 27,200 900 Climbing Guam Center
08:40PM 14.9000 145.9000 33° Northeast 480 552 28,200 1,140 Climbing Guam Center
08:41PM 15.0167 145.9833 35° Northeast 470 541 29,500 1,140 Climbing Guam Center
08:42PM 15.1167 146.0667 39° Northeast 480 552 30,500 900 Climbing Guam Center
08:43PM 15.2333 146.1500 35° Northeast 480 552 31,300 960 Climbing Guam Center
08:44PM 15.3333 146.2333 39° Northeast 480 552 32,500 1,200 Climbing Guam Center
08:45PM 15.4333 146.3000 33° Northeast 460 529 33,800 1,200 Climbing Guam Center
08:46PM 15.5500 146.3833 35° Northeast 450 518 34,900 960 Climbing Guam Center
08:47PM 15.6500 146.4667 39° Northeast 450 518 35,800 840 Climbing Guam Center
08:48PM 15.7500 146.5333 33° Northeast 450 518 36,600 840 Climbing Guam Center
08:49PM 15.8500 146.6167 39° Northeast 450 518 37,600 900 Climbing Guam Center
08:50PM 15.9500 146.6833 33° Northeast 450 518 38,500 660 Climbing Guam Center
08:51PM 16.0500 146.7667 39° Northeast 450 518 39,000 240 Climbing Guam Center
08:52PM 16.1500 146.8500 39° Northeast 460 529 39,000  Level Guam Center
08:53PM 16.2667 146.9167 29° Northeast 460 529 39,000  Level Guam Center
08:55PM 16.4667 147.0833 39° Northeast 460 529 39,000  Level Guam Center
08:56PM 16.5833 147.1500 29° Northeast 470 541 39,000  Level Guam Center
08:57PM 16.6833 147.2333 39° Northeast 460 529 39,000  Level Guam Center
08:58PM 16.7833 147.3167 39° Northeast 470 541 39,000  Level Guam Center
09:00PM 16.8974 147.4307 44° Northeast  Level FlightAware Approximate
09:04PM 16.9167 147.4500 25° Northeast 471 542 39,000  Level Oakland Oceanic (ODAPS)
09:07PM 17.7977 147.8808 25° Northeast  Level FlightAware Approximate
09:08PM 17.9265 147.9454 25° Northeast  Level FlightAware Approximate
09:09PM 18.0553 148.0101 26° Northeast  Level FlightAware Approximate
09:10PM 18.2227 148.0990 25° Northeast 471 542 39,000  Level FlightAware Transoceanic
09:11PM 18.3413 148.1585 25° Northeast 471 542 39,000  Level FlightAware Transoceanic
09:12PM 18.4599 148.2180 25° Northeast 471 542 39,000  Level FlightAware Transoceanic
09:13PM 18.5785 148.2777 26° Northeast 471 542 39,000  Level FlightAware Transoceanic
09:14PM 18.6971 148.3374 26° Northeast 471 542 39,000  Level FlightAware Transoceanic
09:15PM 18.8156 148.3972 26° Northeast 471 542 39,000  Level FlightAware Transoceanic
09:16PM 18.9341 148.4571 26° Northeast 471 542 39,000  Level FlightAware Transoceanic
09:17PM 19.0526 148.5171 26° Northeast 471 542 39,000  Level FlightAware Transoceanic
09:18PM 19.1711 148.5771 26° Northeast 471 542 39,000  Level FlightAware Transoceanic
09:19PM 19.2896 148.6373 26° Northeast 471 542 39,000  Level FlightAware Transoceanic
09:20PM 19.4081 148.6975 26° Northeast 471 542 39,000  Level FlightAware Transoceanic
09:21PM 19.5265 148.7578 26° Northeast 471 542 39,000  Level FlightAware Transoceanic
09:22PM 19.6449 148.8182 26° Northeast 471 542 39,000  Level FlightAware Transoceanic
09:23PM 19.7633 148.8787 26° Northeast 471 542 39,000  Level FlightAware Transoceanic
09:24PM 19.8817 148.9393 26° Northeast 471 542 39,000  Level FlightAware Transoceanic
09:25PM 20.0000 149.0000 28° Northeast 471 542 39,000  Level FlightAware Transoceanic
09:26PM 20.1226 149.0707 28° Northeast 471 542 39,000  Level FlightAware Transoceanic
09:26PM 20.0000 149.0000 28° Northeast 477 549 39,000  Level Oakland Oceanic (ODAPS)
09:27PM 20.2451 149.1415 28° Northeast 471 542 39,000  Level FlightAware Transoceanic
09:28PM 20.3676 149.2125 29° Northeast 471 542 39,000  Level FlightAware Transoceanic
09:29PM 20.4902 149.2835 29° Northeast 471 542 39,000  Level FlightAware Transoceanic
09:30PM 20.6126 149.3547 29° Northeast 471 542 39,000  Level FlightAware Transoceanic
09:31PM 20.7351 149.4259 29° Northeast 471 542 39,000  Level FlightAware Transoceanic
09:32PM 20.8176 149.4741 29° Northeast 477 549 39,000  Level FlightAware Transoceanic
09:33PM 20.9343 149.5422 29° Northeast 477 549 39,000  Level FlightAware Transoceanic
09:34PM 21.0510 149.6105 29° Northeast 477 549 39,000  Level FlightAware Transoceanic
09:35PM 21.1676 149.6788 29° Northeast 477 549 39,000  Level FlightAware Transoceanic
09:36PM 21.2842 149.7473 29° Northeast 477 549 39,000  Level FlightAware Transoceanic
09:37PM 21.4008 149.8159 29° Northeast 477 549 39,000  Level FlightAware Transoceanic
09:38PM 21.5174 149.8845 29° Northeast 477 549 39,000  Level FlightAware Transoceanic
09:39PM 21.6339 149.9533 29° Northeast 477 549 39,000  Level FlightAware Transoceanic
09:40PM 21.7504 150.0222 29° Northeast 477 549 39,000  Level FlightAware Transoceanic
09:41PM 21.8669 150.0912 29° Northeast 477 549 39,000  Level FlightAware Transoceanic
09:42PM 21.9833 150.1604 29° Northeast 477 549 39,000  Level FlightAware Transoceanic
09:43PM 22.0997 150.2296 29° Northeast 477 549 39,000  Level FlightAware Transoceanic
09:44PM 22.2161 150.2990 29° Northeast 477 549 39,000  Level FlightAware Transoceanic
09:45PM 22.3325 150.3684 29° Northeast 477 549 39,000  Level FlightAware Transoceanic
09:46PM 22.4488 150.4380 29° Northeast 477 549 39,000  Level FlightAware Transoceanic
09:47PM 22.5651 150.5077 29° Northeast 477 549 39,000  Level FlightAware Transoceanic
09:48PM 22.6814 150.5775 29° Northeast 477 549 39,000  Level FlightAware Transoceanic
09:49PM 22.7976 150.6475 29° Northeast 477 549 39,000  Level FlightAware Transoceanic
09:50PM 22.9138 150.7175 29° Northeast 477 549 39,000  Level FlightAware Transoceanic
09:51PM 23.0300 150.7877 29° Northeast 477 549 39,000  Level FlightAware Transoceanic
09:52PM 23.1461 150.8580 29° Northeast 477 549 39,000  Level FlightAware Transoceanic
09:53PM 23.2622 150.9285 29° Northeast 477 549 39,000  Level FlightAware Transoceanic
09:54PM 23.3783 150.9990 29° Northeast 477 549 39,000  Level FlightAware Transoceanic
09:55PM 23.4944 151.0697 29° Northeast 477 549 39,000  Level FlightAware Transoceanic
09:56PM 23.6104 151.1405 29° Northeast 477 549 39,000  Level FlightAware Transoceanic
09:57PM 23.7264 151.2114 29° Northeast 477 549 39,000  Level FlightAware Transoceanic
09:58PM 23.8423 151.2824 29° Northeast 477 549 39,000  Level FlightAware Transoceanic
09:59PM 23.9582 151.3536 29° Northeast 477 549 39,000  Level FlightAware Transoceanic
10:00PM 24.0741 151.4249 29° Northeast 477 549 39,000  Level FlightAware Transoceanic
10:01PM 24.1900 151.4963 29° Northeast 477 549 39,000  Level FlightAware Transoceanic
10:02PM 24.3058 151.5679 29° Northeast 477 549 39,000  Level FlightAware Transoceanic
10:03PM 24.4216 151.6396 29° Northeast 477 549 39,000  Level FlightAware Transoceanic
10:04PM 24.5373 151.7114 29° Northeast 477 549 39,000  Level FlightAware Transoceanic
10:05PM 24.6530 151.7833 29° Northeast 477 549 39,000  Level FlightAware Transoceanic
10:06PM 24.7687 151.8554 30° Northeast 477 549 39,000  Level FlightAware Transoceanic
10:07PM 24.8844 151.9276 30° Northeast 477 549 39,000  Level FlightAware Transoceanic
10:08PM 25.0000 152.0000 33° Northeast 477 549 39,000  Level FlightAware Transoceanic
10:09PM 25.1221 152.0879 33° Northeast 477 549 39,000  Level FlightAware Transoceanic
10:10PM 25.2442 152.1759 33° Northeast 477 549 39,000  Level FlightAware Transoceanic
10:11PM 25.3662 152.2642 33° Northeast 477 549 39,000  Level FlightAware Transoceanic
10:12PM 25.4881 152.3526 33° Northeast 477 549 39,000  Level FlightAware Transoceanic
10:13PM 25.6100 152.4412 33° Northeast 477 549 39,000  Level FlightAware Transoceanic
10:14PM 25.7319 152.5300 33° Northeast 477 549 39,000  Level FlightAware Transoceanic
10:15PM 25.8537 152.6189 33° Northeast 477 549 39,000  Level FlightAware Transoceanic
10:16PM 25.9754 152.7080 33° Northeast 477 549 39,000  Level FlightAware Transoceanic
10:17PM 26.0971 152.7974 33° Northeast 477 549 39,000  Level FlightAware Transoceanic
10:18PM 26.2187 152.8869 33° Northeast 477 549 39,000  Level FlightAware Transoceanic
10:19PM 26.3403 152.9766 34° Northeast 477 549 39,000  Level FlightAware Transoceanic
10:20PM 26.4618 153.0665 34° Northeast 477 549 39,000  Level FlightAware Transoceanic
10:21PM 26.5833 153.1565 34° Northeast 477 549 39,000  Level FlightAware Transoceanic
10:22PM 26.7047 153.2468 34° Northeast 477 549 39,000  Level FlightAware Transoceanic
10:23PM 26.8260 153.3372 34° Northeast 477 549 39,000  Level FlightAware Transoceanic
10:24PM 26.9473 153.4279 34° Northeast 477 549 39,000  Level FlightAware Transoceanic
10:25PM 27.0686 153.5188 34° Northeast 477 549 39,000  Level FlightAware Transoceanic
10:26PM 27.1897 153.6098 34° Northeast 477 549 39,000  Level FlightAware Transoceanic
10:27PM 27.3108 153.7010 34° Northeast 477 549 39,000  Level FlightAware Transoceanic
10:28PM 27.4319 153.7925 34° Northeast 477 549 39,000  Level FlightAware Transoceanic
10:29PM 27.5529 153.8841 34° Northeast 477 549 39,000  Level FlightAware Transoceanic
10:30PM 27.6738 153.9760 34° Northeast 477 549 39,000  Level FlightAware Transoceanic
10:31PM 27.7947 154.0680 34° Northeast 477 549 39,000  Level FlightAware Transoceanic
10:32PM 27.9155 154.1603 34° Northeast 477 549 39,000  Level FlightAware Transoceanic
10:33PM 28.0363 154.2527 34° Northeast 477 549 39,000  Level FlightAware Transoceanic
10:34PM 28.1569 154.3454 34° Northeast 477 549 39,000  Level FlightAware Transoceanic
10:35PM 28.2776 154.4383 34° Northeast 477 549 39,000  Level FlightAware Transoceanic
10:36PM 28.3981 154.5314 34° Northeast 477 549 39,000  Level FlightAware Transoceanic
10:37PM 28.5186 154.6247 34° Northeast 477 549 39,000  Level FlightAware Transoceanic
10:38PM 28.6391 154.7182 34° Northeast 477 549 39,000  Level FlightAware Transoceanic
10:39PM 28.7595 154.8119 34° Northeast 477 549 39,000  Level FlightAware Transoceanic
10:40PM 28.8798 154.9058 34° Northeast 477 549 39,000  Level FlightAware Transoceanic
10:41PM 29.0003 155.0002 34° Northeast  Level FlightAware Approximate
10:42PM 29.0005 155.0005 46° Northeast  Level FlightAware Approximate
10:43PM 29.1024 155.1202 46° Northeast  Level FlightAware Approximate
10:44PM 29.2043 155.2402 46° Northeast  Level FlightAware Approximate
10:45PM 29.3060 155.3603 46° Northeast  Level FlightAware Approximate
10:46PM 29.4077 155.4807 46° Northeast  Level FlightAware Approximate
10:47PM 29.5092 155.6014 46° Northeast  Level FlightAware Approximate
10:48PM 29.6107 155.7223 46° Northeast  Level FlightAware Approximate
10:49PM 29.7120 155.8434 46° Northeast  Level FlightAware Approximate
10:50PM 29.8132 155.9648 46° Northeast  Level FlightAware Approximate
10:51PM 29.9143 156.0864 46° Northeast  Level FlightAware Approximate
10:52PM 30.0153 156.2083 46° Northeast  Level FlightAware Approximate
10:53PM 30.1161 156.3304 46° Northeast  Level FlightAware Approximate
10:54PM 30.2169 156.4528 46° Northeast  Level FlightAware Approximate
10:55PM 30.3166 156.5742 46° Northeast  Level FlightAware Approximate
10:56PM 30.4161 156.6959 46° Northeast  Level FlightAware Approximate
10:57PM 30.5156 156.8179 47° Northeast  Level FlightAware Approximate
10:58PM 30.6149 156.9400 47° Northeast  Level FlightAware Approximate
10:59PM 30.7141 157.0625 47° Northeast  Level FlightAware Approximate
11:00PM 30.8132 157.1852 47° Northeast  Level FlightAware Approximate
11:01PM 30.9122 157.3081 47° Northeast  Level FlightAware Approximate
11:02PM 31.0111 157.4313 47° Northeast  Level FlightAware Approximate
11:03PM 31.1099 157.5547 47° Northeast  Level FlightAware Approximate
11:04PM 31.2085 157.6785 47° Northeast  Level FlightAware Approximate
11:05PM 31.3070 157.8024 47° Northeast  Level FlightAware Approximate
11:06PM 31.4054 157.9266 47° Northeast  Level FlightAware Approximate
11:07PM 31.5037 158.0511 47° Northeast  Level FlightAware Approximate
11:08PM 31.6019 158.1759 47° Northeast  Level FlightAware Approximate
11:09PM 31.6999 158.3009 47° Northeast  Level FlightAware Approximate
11:10PM 31.7978 158.4262 47° Northeast  Level FlightAware Approximate
11:11PM 31.8956 158.5517 47° Northeast  Level FlightAware Approximate
11:12PM 31.9933 158.6775 48° Northeast  Level FlightAware Approximate
11:13PM 32.0908 158.8036 48° Northeast  Level FlightAware Approximate
11:14PM 32.1882 158.9299 48° Northeast  Level FlightAware Approximate
11:15PM 32.2855 159.0565 48° Northeast  Level FlightAware Approximate
11:16PM 32.3827 159.1834 48° Northeast  Level FlightAware Approximate
11:17PM 32.4797 159.3106 48° Northeast  Level FlightAware Approximate
11:18PM 32.5766 159.4380 48° Northeast  Level FlightAware Approximate
11:19PM 32.6734 159.5657 48° Northeast  Level FlightAware Approximate
11:20PM 32.7701 159.6937 48° Northeast  Level FlightAware Approximate
11:21PM 32.8666 159.8220 48° Northeast  Level FlightAware Approximate
11:22PM 32.9630 159.9505 48° Northeast  Level FlightAware Approximate
11:23PM 33.0500 160.0880 56° Northeast  Level FlightAware Approximate
11:24PM 33.1310 160.2311 56° Northeast  Level FlightAware Approximate
11:25PM 33.2118 160.3744 56° Northeast  Level FlightAware Approximate
11:26PM 33.2925 160.5180 56° Northeast  Level FlightAware Approximate
11:27PM 33.3730 160.6619 56° Northeast  Level FlightAware Approximate
11:28PM 33.4534 160.8061 56° Northeast  Level FlightAware Approximate
11:29PM 33.5341 160.9501 56° Northeast  Level FlightAware Approximate
11:30PM 33.6146 161.0944 56° Northeast  Level FlightAware Approximate
11:31PM 33.6949 161.2390 56° Northeast  Level FlightAware Approximate
11:32PM 33.7751 161.3838 56° Northeast  Level FlightAware Approximate
11:33PM 33.8551 161.5289 56° Northeast  Level FlightAware Approximate
11:34PM 33.9349 161.6743 56° Northeast  Level FlightAware Approximate
11:35PM 34.0146 161.8199 57° Northeast  Level FlightAware Approximate
11:36PM 34.0941 161.9659 57° Northeast  Level FlightAware Approximate
11:37PM 34.1734 162.1121 57° Northeast  Level FlightAware Approximate
11:38PM 34.2525 162.2585 57° Northeast  Level FlightAware Approximate
11:39PM 34.3315 162.4053 57° Northeast  Level FlightAware Approximate
11:40PM 34.4103 162.5523 57° Northeast  Level FlightAware Approximate
11:41PM 34.4889 162.6996 57° Northeast  Level FlightAware Approximate
11:42PM 34.5674 162.8472 57° Northeast  Level FlightAware Approximate
11:43PM 34.6456 162.9951 57° Northeast  Level FlightAware Approximate
11:44PM 34.7237 163.1432 57° Northeast  Level FlightAware Approximate
11:45PM 34.8016 163.2916 57° Northeast  Level FlightAware Approximate
11:46PM 34.8793 163.4403 57° Northeast  Level FlightAware Approximate
11:47PM 34.9569 163.5893 58° Northeast  Level FlightAware Approximate
11:48PM 35.0342 163.7386 58° Northeast  Level FlightAware Approximate
11:49PM 35.1114 163.8881 58° Northeast  Level FlightAware Approximate
11:50PM 35.1884 164.0379 58° Northeast  Level FlightAware Approximate
11:51PM 35.2652 164.1880 58° Northeast  Level FlightAware Approximate
11:52PM 35.3418 164.3384 58° Northeast  Level FlightAware Approximate
11:53PM 35.4181 164.4887 58° Northeast  Level FlightAware Approximate
11:54PM 35.4941 164.6392 58° Northeast  Level FlightAware Approximate
11:55PM 35.5700 164.7901 58° Northeast  Level FlightAware Approximate
11:56PM 35.6456 164.9412 58° Northeast  Level FlightAware Approximate
11:57PM 35.7212 165.0925 58° Northeast  Level FlightAware Approximate
11:58PM 35.7966 165.2441 58° Northeast  Level FlightAware Approximate
11:59PM 35.8718 165.3960 59° Northeast  Level FlightAware Approximate
12:01AM 36.0939 165.8483 59° Northeast  Level FlightAware Approximate
12:01AM 36.0951 165.8508 59° Northeast  Level FlightAware Approximate
12:03AM 36.1708 166.0064 59° Northeast  Level FlightAware Approximate
12:03AM 36.1708 166.0064 59° Northeast  Level FlightAware Approximate
12:04AM 36.2451 166.1597 59° Northeast  Level FlightAware Approximate
12:04AM 36.2451 166.1597 59° Northeast  Level FlightAware Approximate
12:05AM 36.3191 166.3133 59° Northeast  Level FlightAware Approximate
12:06AM 36.3930 166.4672 59° Northeast  Level FlightAware Approximate
12:07AM 36.4668 166.6214 59° Northeast  Level FlightAware Approximate
12:08AM 36.5403 166.7758 59° Northeast  Level FlightAware Approximate
12:09AM 36.6137 166.9305 59° Northeast  Level FlightAware Approximate
12:10AM 36.6869 167.0855 59° Northeast  Level FlightAware Approximate
12:11AM 36.7599 167.2408 60° Northeast  Level FlightAware Approximate
12:12AM 36.8327 167.3963 60° Northeast  Level FlightAware Approximate
12:13AM 36.9053 167.5522 60° Northeast  Level FlightAware Approximate
12:14AM 36.9776 167.7084 60° Northeast  Level FlightAware Approximate
12:15AM 37.0498 167.8649 60° Northeast  Level FlightAware Approximate
12:16AM 37.1218 168.0216 60° Northeast  Level FlightAware Approximate
12:17AM 37.1935 168.1787 60° Northeast  Level FlightAware Approximate
12:18AM 37.2650 168.3361 60° Northeast  Level FlightAware Approximate
12:19AM 37.3363 168.4938 60° Northeast  Level FlightAware Approximate
12:20AM 37.4074 168.6518 60° Northeast  Level FlightAware Approximate
12:20AM 38.0000 170.0000 72° East 590 679 43,000  Level Oakland Oceanic (ODAPS)
12:21AM 37.4782 168.8101 61° Northeast  Level FlightAware Approximate
12:22AM 37.5489 168.9687 61° Northeast  Level FlightAware Approximate
12:23AM 37.6194 169.1276 61° Northeast  Level FlightAware Approximate
12:24AM 37.6896 169.2868 61° Northeast  Level FlightAware Approximate
12:25AM 37.7596 169.4463 61° Northeast  Level FlightAware Approximate
12:26AM 37.8294 169.6061 61° Northeast  Level FlightAware Approximate
12:27AM 38.4767 171.9935 74° East 590 679 43,000  Level FlightAware Transoceanic
12:28AM 38.5225 172.1943 74° East 590 679 43,000  Level FlightAware Transoceanic
12:29AM 38.5680 172.3953 74° East 590 679 43,000  Level FlightAware Transoceanic
12:30AM 38.6131 172.5966 74° East 590 679 43,000  Level FlightAware Transoceanic
12:31AM 38.6578 172.7981 74° East 590 679 43,000  Level FlightAware Transoceanic
12:32AM 38.7023 172.9999 74° East 590 679 43,000  Level FlightAware Transoceanic
12:33AM 38.7463 173.2019 74° East 590 679 43,000  Level FlightAware Transoceanic
12:34AM 38.7901 173.4042 75° East 590 679 43,000  Level FlightAware Transoceanic
12:35AM 38.8335 173.6068 75° East 590 679 43,000  Level FlightAware Transoceanic
12:36AM 38.8765 173.8095 75° East 590 679 43,000  Level FlightAware Transoceanic
12:37AM 38.9192 174.0125 75° East 590 679 43,000  Level FlightAware Transoceanic
12:38AM 38.9615 174.2158 75° East 590 679 43,000  Level FlightAware Transoceanic
12:39AM 39.0035 174.4193 75° East 590 679 43,000  Level FlightAware Transoceanic
12:40AM 39.0451 174.6231 75° East 590 679 43,000  Level FlightAware Transoceanic
12:41AM 39.0864 174.8271 75° East 590 679 43,000  Level FlightAware Transoceanic
12:42AM 39.1273 175.0313 76° East 590 679 43,000  Level FlightAware Transoceanic
12:43AM 39.1678 175.2357 76° East 590 679 43,000  Level FlightAware Transoceanic
12:44AM 39.2080 175.4404 76° East 590 679 43,000  Level FlightAware Transoceanic
12:45AM 39.2478 175.6454 76° East 590 679 43,000  Level FlightAware Transoceanic
12:46AM 39.2873 175.8505 76° East 590 679 43,000  Level FlightAware Transoceanic
12:47AM 39.3264 176.0559 76° East 590 679 43,000  Level FlightAware Transoceanic
12:48AM 39.3652 176.2616 76° East 590 679 43,000  Level FlightAware Transoceanic
12:49AM 39.4036 176.4674 76° East 590 679 43,000  Level FlightAware Transoceanic
12:50AM 39.4416 176.6735 77° East 590 679 43,000  Level FlightAware Transoceanic
12:51AM 39.4793 176.8798 77° East 590 679 43,000  Level FlightAware Transoceanic
12:52AM 39.5166 177.0863 77° East 590 679 43,000  Level FlightAware Transoceanic
12:53AM 39.5535 177.2930 77° East 590 679 43,000  Level FlightAware Transoceanic
12:54AM 39.5901 177.5000 77° East 590 679 43,000  Level FlightAware Transoceanic
12:55AM 39.6263 177.7072 77° East 590 679 43,000  Level FlightAware Transoceanic
12:56AM 39.6621 177.9146 77° East 590 679 43,000  Level FlightAware Transoceanic
12:57AM 39.6976 178.1222 78° East 590 679 43,000  Level FlightAware Transoceanic
12:58AM 39.7327 178.3300 78° East 590 679 43,000  Level FlightAware Transoceanic
12:59AM 39.7674 178.5380 78° East 590 679 43,000  Level FlightAware Transoceanic
01:00AM 39.8018 178.7463 78° East 590 679 43,000  Level FlightAware Transoceanic
01:01AM 39.8357 178.9547 78° East 590 679 43,000  Level FlightAware Transoceanic
01:02AM 39.8693 179.1634 78° East 590 679 43,000  Level FlightAware Transoceanic
01:03AM 39.9026 179.3722 78° East 590 679 43,000  Level FlightAware Transoceanic
01:04AM 39.9354 179.5813 78° East 590 679 43,000  Level FlightAware Transoceanic
01:05AM 39.9679 179.7905 79° East 590 679 43,000  Level FlightAware Transoceanic
01:06AM 40.0000 -180.0000 72° East 590 679 43,000  Level FlightAware Transoceanic
01:07AM 40.0474 -179.8100 72° East 590 679 43,000  Level FlightAware Transoceanic
01:08AM 40.0944 -179.6198 72° East 590 679 43,000  Level FlightAware Transoceanic
01:09AM 40.1411 -179.4293 72° East 590 679 43,000  Level FlightAware Transoceanic
01:10AM 40.1875 -179.2385 72° East 590 679 43,000  Level FlightAware Transoceanic
01:11AM 40.2337 -179.0475 73° East 590 679 43,000  Level FlightAware Transoceanic
01:12AM 40.2794 -178.8562 73° East 590 679 43,000  Level FlightAware Transoceanic
01:13AM 40.3249 -178.6647 73° East 590 679 43,000  Level FlightAware Transoceanic
01:14AM 40.3701 -178.4729 73° East 590 679 43,000  Level FlightAware Transoceanic
01:15AM 40.4149 -178.2809 73° East 590 679 43,000  Level FlightAware Transoceanic
01:16AM 40.4594 -178.0886 73° East 590 679 43,000  Level FlightAware Transoceanic
01:17AM 40.5036 -177.8960 73° East 590 679 43,000  Level FlightAware Transoceanic
01:18AM 40.5475 -177.7032 73° East 590 679 43,000  Level FlightAware Transoceanic
01:19AM 40.5911 -177.5101 74° East 590 679 43,000  Level FlightAware Transoceanic
01:20AM 40.6343 -177.3168 74° East 590 679 43,000  Level FlightAware Transoceanic
01:21AM 40.6772 -177.1232 74° East 590 679 43,000  Level FlightAware Transoceanic
01:22AM 40.7198 -176.9294 74° East 590 679 43,000  Level FlightAware Transoceanic
01:23AM 40.7621 -176.7354 74° East 590 679 43,000  Level FlightAware Transoceanic
01:23AM 40.0000 -180.0000 72° East 575 662 43,000  Level Oakland Oceanic (ODAPS)
01:24AM 40.8041 -176.5411 74° East 590 679 43,000  Level FlightAware Transoceanic
01:25AM 40.8457 -176.3465 74° East 590 679 43,000  Level FlightAware Transoceanic
01:26AM 40.8870 -176.1517 74° East 590 679 43,000  Level FlightAware Transoceanic
01:27AM 40.9279 -175.9567 75° East 590 679 43,000  Level FlightAware Transoceanic
01:28AM 40.9686 -175.7614 75° East 590 679 43,000  Level FlightAware Transoceanic
01:29AM 41.0089 -175.5659 75° East 590 679 43,000  Level FlightAware Transoceanic
01:30AM 41.0048 -175.5859 75° East 575 662 43,000  Level FlightAware Transoceanic
01:31AM 41.0464 -175.3821 75° East 575 662 43,000  Level FlightAware Transoceanic
01:32AM 41.0877 -175.1781 75° East 575 662 43,000  Level FlightAware Transoceanic
01:33AM 41.1286 -174.9739 75° East 575 662 43,000  Level FlightAware Transoceanic
01:34AM 41.1691 -174.7694 75° East 575 662 43,000  Level FlightAware Transoceanic
01:35AM 41.2093 -174.5647 75° East 575 662 43,000  Level FlightAware Transoceanic
01:36AM 41.2491 -174.3597 76° East 575 662 43,000  Level FlightAware Transoceanic
01:37AM 41.2886 -174.1544 76° East 575 662 43,000  Level FlightAware Transoceanic
01:38AM 41.3277 -173.9489 76° East 575 662 43,000  Level FlightAware Transoceanic
01:39AM 41.3664 -173.7432 76° East 575 662 43,000  Level FlightAware Transoceanic
01:40AM 41.4048 -173.5372 76° East 575 662 43,000  Level FlightAware Transoceanic
01:41AM 41.4428 -173.3310 76° East 575 662 43,000  Level FlightAware Transoceanic
01:42AM 41.4804 -173.1246 76° East 575 662 43,000  Level FlightAware Transoceanic
01:43AM 41.5177 -172.9178 77° East 575 662 43,000  Level FlightAware Transoceanic
01:44AM 41.5546 -172.7109 77° East 575 662 43,000  Level FlightAware Transoceanic
01:45AM 41.5911 -172.5037 77° East 575 662 43,000  Level FlightAware Transoceanic
01:46AM 41.6272 -172.2963 77° East 575 662 43,000  Level FlightAware Transoceanic
01:47AM 41.6630 -172.0887 77° East 575 662 43,000  Level FlightAware Transoceanic
01:48AM 41.6984 -171.8808 77° East 575 662 43,000  Level FlightAware Transoceanic
01:49AM 41.7334 -171.6727 77° East 575 662 43,000  Level FlightAware Transoceanic
01:50AM 41.7681 -171.4644 78° East 575 662 43,000  Level FlightAware Transoceanic
01:51AM 41.8023 -171.2559 78° East 575 662 43,000  Level FlightAware Transoceanic
01:52AM 41.8362 -171.0471 78° East 575 662 43,000  Level FlightAware Transoceanic
01:53AM 41.8698 -170.8381 78° East 575 662 43,000  Level FlightAware Transoceanic
01:54AM 41.9029 -170.6289 78° East 575 662 43,000  Level FlightAware Transoceanic
01:55AM 41.9356 -170.4195 78° East 575 662 43,000  Level FlightAware Transoceanic
01:56AM 41.9680 -170.2099 78° East 575 662 43,000  Level FlightAware Transoceanic
01:57AM 42.0000 -170.0000 71° East 575 662 43,000  Level FlightAware Transoceanic
01:58AM 42.0484 -169.8067 71° East 575 662 43,000  Level FlightAware Transoceanic
01:59AM 42.0964 -169.6131 72° East 575 662 43,000  Level FlightAware Transoceanic
01:59AM 42.0000 -170.0000 71° East 536 617 43,000  Level Oakland Oceanic (ODAPS)
02:00AM 42.1441 -169.4192 72° East 575 662 43,000  Level FlightAware Transoceanic
02:01AM 42.1914 -169.2250 72° East 575 662 43,000  Level FlightAware Transoceanic
02:02AM 42.2385 -169.0305 72° East 575 662 43,000  Level FlightAware Transoceanic
02:03AM 42.2852 -168.8357 72° East 575 662 43,000  Level FlightAware Transoceanic
02:04AM 42.3316 -168.6406 72° East 575 662 43,000  Level FlightAware Transoceanic
02:05AM 42.3704 -168.4759 72° East 536 617 43,000  Level FlightAware Transoceanic
02:06AM 42.4153 -168.2842 72° East 536 617 43,000  Level FlightAware Transoceanic
02:07AM 42.4599 -168.0921 73° East 536 617 43,000  Level FlightAware Transoceanic
02:08AM 42.5041 -167.8998 73° East 536 617 43,000  Level FlightAware Transoceanic
02:09AM 42.5480 -167.7073 73° East 536 617 43,000  Level FlightAware Transoceanic
02:10AM 42.5916 -167.5144 73° East 536 617 43,000  Level FlightAware Transoceanic
02:11AM 42.6349 -167.3213 73° East 536 617 43,000  Level FlightAware Transoceanic
02:12AM 42.6778 -167.1279 73° East 536 617 43,000  Level FlightAware Transoceanic
02:13AM 42.7205 -166.9343 73° East 536 617 43,000  Level FlightAware Transoceanic
02:14AM 42.7628 -166.7404 74° East 536 617 43,000  Level FlightAware Transoceanic
02:15AM 42.8047 -166.5462 74° East 536 617 43,000  Level FlightAware Transoceanic
02:16AM 42.8464 -166.3517 74° East 536 617 43,000  Level FlightAware Transoceanic
02:17AM 42.8877 -166.1570 74° East 536 617 43,000  Level FlightAware Transoceanic
02:18AM 42.9287 -165.9621 74° East 536 617 43,000  Level FlightAware Transoceanic
02:19AM 42.9693 -165.7669 74° East 536 617 43,000  Level FlightAware Transoceanic
02:20AM 43.0096 -165.5714 74° East 536 617 43,000  Level FlightAware Transoceanic
02:21AM 43.0496 -165.3757 74° East 536 617 43,000  Level FlightAware Transoceanic
02:22AM 43.0892 -165.1797 75° East 536 617 43,000  Level FlightAware Transoceanic
02:23AM 43.1286 -164.9834 75° East 536 617 43,000  Level FlightAware Transoceanic
02:24AM 43.1675 -164.7870 75° East 536 617 43,000  Level FlightAware Transoceanic
02:25AM 43.2062 -164.5902 75° East 536 617 43,000  Level FlightAware Transoceanic
02:26AM 43.2445 -164.3932 75° East 536 617 43,000  Level FlightAware Transoceanic
02:27AM 43.2824 -164.1960 75° East 536 617 43,000  Level FlightAware Transoceanic
02:28AM 43.3201 -163.9985 75° East 536 617 43,000  Level FlightAware Transoceanic
02:29AM 43.3573 -163.8008 76° East 536 617 43,000  Level FlightAware Transoceanic
02:30AM 43.3943 -163.6028 76° East 536 617 43,000  Level FlightAware Transoceanic
02:31AM 43.4309 -163.4046 76° East 536 617 43,000  Level FlightAware Transoceanic
02:32AM 43.4672 -163.2062 76° East 536 617 43,000  Level FlightAware Transoceanic
02:33AM 43.5031 -163.0075 76° East 536 617 43,000  Level FlightAware Transoceanic
02:34AM 43.5386 -162.8086 76° East 536 617 43,000  Level FlightAware Transoceanic
02:35AM 43.5739 -162.6094 76° East 536 617 43,000  Level FlightAware Transoceanic
02:36AM 43.6087 -162.4100 76° East 536 617 43,000  Level FlightAware Transoceanic
02:37AM 43.6433 -162.2104 77° East 536 617 43,000  Level FlightAware Transoceanic
02:38AM 43.6774 -162.0106 77° East 536 617 43,000  Level FlightAware Transoceanic
02:39AM 43.7113 -161.8105 77° East 536 617 43,000  Level FlightAware Transoceanic
02:40AM 43.7448 -161.6102 77° East 536 617 43,000  Level FlightAware Transoceanic
02:41AM 43.7779 -161.4097 77° East 536 617 43,000  Level FlightAware Transoceanic
02:42AM 43.8107 -161.2090 77° East 536 617 43,000  Level FlightAware Transoceanic
02:43AM 43.8431 -161.0080 77° East 536 617 43,000  Level FlightAware Transoceanic
02:44AM 43.8752 -160.8068 78° East 536 617 43,000  Level FlightAware Transoceanic
02:45AM 43.9069 -160.6054 78° East 536 617 43,000  Level FlightAware Transoceanic
02:46AM 43.9383 -160.4038 78° East 536 617 43,000  Level FlightAware Transoceanic
02:47AM 43.9693 -160.2020 78° East 536 617 43,000  Level FlightAware Transoceanic
02:48AM 44.0000 -160.0000 79° East 536 617 43,000  Level FlightAware Transoceanic
02:49AM 44.0290 -159.7998 79° East 536 617 43,000  Level FlightAware Transoceanic
02:50AM 44.0577 -159.5994 79° East 536 617 43,000  Level FlightAware Transoceanic
02:51AM 44.0860 -159.3988 79° East 536 617 43,000 1,200 Level FlightAware Transoceanic
02:51AM 44.0000 -160.0000 79° East 509 586 45,000  Climbing Oakland Oceanic (ODAPS)
02:52AM 44.1140 -159.1980 79° East 536 617 43,000 -1,500 Descending FlightAware Transoceanic
02:53AM 44.1417 -158.9970 79° East 536 617 43,000  Level FlightAware Transoceanic
02:54AM 44.1689 -158.7958 79° East 536 617 43,000  Level FlightAware Transoceanic
02:55AM 44.1959 -158.5945 80° East 536 617 43,000  Level FlightAware Transoceanic
02:56AM 44.2224 -158.3929 80° East 536 617 43,000  Level FlightAware Transoceanic
02:57AM 44.2487 -158.1912 80° East 536 617 43,000 960 Level FlightAware Transoceanic
02:58AM 44.2394 -158.2624 80° East 509 586 45,000 960 Climbing FlightAware Transoceanic
02:59AM 44.2644 -158.0685 80° East 509 586 45,000  Level FlightAware Transoceanic
03:00AM 44.2891 -157.8744 80° East 509 586 45,000  Level FlightAware Transoceanic
03:01AM 44.3134 -157.6801 80° East 509 586 45,000  Level FlightAware Transoceanic
03:02AM 44.3374 -157.4857 80° East 509 586 45,000  Level FlightAware Transoceanic
03:03AM 44.3610 -157.2912 80° East 509 586 45,000  Level FlightAware Transoceanic
03:04AM 44.3843 -157.0965 81° East 509 586 45,000  Level FlightAware Transoceanic
03:05AM 44.4073 -156.9016 81° East 509 586 45,000  Level FlightAware Transoceanic
03:06AM 44.4300 -156.7066 81° East 509 586 45,000  Level FlightAware Transoceanic
03:07AM 44.4524 -156.5114 81° East 509 586 45,000  Level FlightAware Transoceanic
03:08AM 44.4743 -156.3161 81° East 509 586 45,000  Level FlightAware Transoceanic
03:09AM 44.4960 -156.1206 81° East 509 586 45,000  Level FlightAware Transoceanic
03:10AM 44.5173 -155.9250 81° East 509 586 45,000  Level FlightAware Transoceanic
03:11AM 44.5383 -155.7292 82° East 509 586 45,000  Level FlightAware Transoceanic
03:12AM 44.5590 -155.5333 82° East 509 586 45,000  Level FlightAware Transoceanic
03:13AM 44.5793 -155.3373 82° East 509 586 45,000  Level FlightAware Transoceanic
03:14AM 44.5993 -155.1411 82° East 509 586 45,000  Level FlightAware Transoceanic
03:15AM 44.6190 -154.9448 82° East 509 586 45,000  Level FlightAware Transoceanic
03:16AM 44.6383 -154.7484 82° East 509 586 45,000  Level FlightAware Transoceanic
03:17AM 44.6573 -154.5518 82° East 509 586 45,000  Level FlightAware Transoceanic
03:18AM 44.6759 -154.3551 82° East 509 586 45,000  Level FlightAware Transoceanic
03:19AM 44.6942 -154.1583 83° East 509 586 45,000  Level FlightAware Transoceanic
03:20AM 44.7122 -153.9614 83° East 509 586 45,000  Level FlightAware Transoceanic
03:21AM 44.7299 -153.7643 83° East 509 586 45,000  Level FlightAware Transoceanic
03:22AM 44.7471 -153.5671 83° East 509 586 45,000  Level FlightAware Transoceanic
03:23AM 44.7641 -153.3698 83° East 509 586 45,000  Level FlightAware Transoceanic
03:24AM 44.7807 -153.1724 83° East 509 586 45,000  Level FlightAware Transoceanic
03:25AM 44.7970 -152.9749 83° East 509 586 45,000  Level FlightAware Transoceanic
03:26AM 44.8129 -152.7772 84° East 509 586 45,000  Level FlightAware Transoceanic
03:27AM 44.8285 -152.5795 84° East 509 586 45,000  Level FlightAware Transoceanic
03:28AM 44.8438 -152.3816 84° East 509 586 45,000  Level FlightAware Transoceanic
03:29AM 44.8587 -152.1837 84° East 509 586 45,000  Level FlightAware Transoceanic
03:30AM 44.8732 -151.9856 84° East 509 586 45,000  Level FlightAware Transoceanic
03:31AM 44.8875 -151.7875 84° East 509 586 45,000  Level FlightAware Transoceanic
03:32AM 44.9013 -151.5892 84° East 509 586 45,000  Level FlightAware Transoceanic
03:33AM 44.9149 -151.3909 85° East 509 586 45,000  Level FlightAware Transoceanic
03:34AM 44.9281 -151.1924 85° East 509 586 45,000  Level FlightAware Transoceanic
03:35AM 44.9409 -150.9939 85° East 509 586 45,000  Level FlightAware Transoceanic
03:36AM 44.9534 -150.7953 85° East 509 586 45,000  Level FlightAware Transoceanic
03:37AM 44.9656 -150.5966 85° East 509 586 45,000  Level FlightAware Transoceanic
03:38AM 44.9774 -150.3978 85° East 509 586 45,000  Level FlightAware Transoceanic
03:39AM 44.9889 -150.1989 85° East 509 586 45,000  Level FlightAware Transoceanic
03:40AM 45.0000 -150.0000 102° East 509 586 45,000  Level FlightAware Transoceanic
03:41AM 44.9700 -149.8017 102° East 509 586 45,000  Level FlightAware Transoceanic
03:42AM 44.9395 -149.6035 102° East 509 586 45,000 1,380 Level FlightAware Transoceanic
03:42AM 45.0000 -150.0000 102° East 508 585 47,000  Climbing Oakland Oceanic (ODAPS)
03:43AM 44.9088 -149.4056 102° East 509 586 45,000 -1,260 Descending FlightAware Transoceanic
03:44AM 44.8777 -149.2079 103° East 509 586 45,000  Level FlightAware Transoceanic
03:45AM 44.8463 -149.0104 103° East 509 586 45,000  Level FlightAware Transoceanic
03:46AM 44.8145 -148.8131 103° East 509 586 45,000  Level FlightAware Transoceanic
03:47AM 44.7825 -148.6160 103° East 509 586 45,000 960 Level FlightAware Transoceanic
03:48AM 44.7867 -148.6420 103° East 508 585 47,000 960 Climbing FlightAware Transoceanic
03:49AM 44.7549 -148.4489 103° East 508 585 47,000  Level FlightAware Transoceanic
03:50AM 44.7228 -148.2559 103° East 508 585 47,000  Level FlightAware Transoceanic
03:51AM 44.6904 -148.0632 103° East 508 585 47,000  Level FlightAware Transoceanic
03:52AM 44.6576 -147.8707 104° East 508 585 47,000  Level FlightAware Transoceanic
03:53AM 44.6246 -147.6783 104° East 508 585 47,000  Level FlightAware Transoceanic
03:54AM 44.5912 -147.4863 104° East 508 585 47,000  Level FlightAware Transoceanic
03:55AM 44.5574 -147.2944 104° East 508 585 47,000  Level FlightAware Transoceanic
03:56AM 44.5234 -147.1028 104° East 508 585 47,000  Level FlightAware Transoceanic
03:57AM 44.4891 -146.9114 104° East 508 585 47,000  Level FlightAware Transoceanic
03:58AM 44.4544 -146.7202 104° East 508 585 47,000  Level FlightAware Transoceanic
03:59AM 44.4194 -146.5292 104° East 508 585 47,000  Level FlightAware Transoceanic
04:00AM 44.3840 -146.3385 105° East 508 585 47,000  Level FlightAware Transoceanic
04:01AM 44.3484 -146.1480 105° East 508 585 47,000  Level FlightAware Transoceanic
04:02AM 44.3125 -145.9577 105° East 508 585 47,000  Level FlightAware Transoceanic
04:03AM 44.2762 -145.7677 105° East 508 585 47,000  Level FlightAware Transoceanic
04:04AM 44.2396 -145.5779 105° East 508 585 47,000  Level FlightAware Transoceanic
04:05AM 44.2027 -145.3884 105° East 508 585 47,000  Level FlightAware Transoceanic
04:06AM 44.1655 -145.1990 105° East 508 585 47,000  Level FlightAware Transoceanic
04:07AM 44.1280 -145.0099 106° East 508 585 47,000  Level FlightAware Transoceanic
04:08AM 44.0902 -144.8211 106° East 508 585 47,000  Level FlightAware Transoceanic
04:09AM 44.0520 -144.6325 106° East 508 585 47,000  Level FlightAware Transoceanic
04:10AM 44.0136 -144.4442 106° East 508 585 47,000  Level FlightAware Transoceanic
04:11AM 43.9748 -144.2561 106° East 508 585 47,000  Level FlightAware Transoceanic
04:12AM 43.9358 -144.0682 106° East 508 585 47,000  Level FlightAware Transoceanic
04:13AM 43.8964 -143.8806 106° East 508 585 47,000  Level FlightAware Transoceanic
04:14AM 43.8567 -143.6932 106° East 508 585 47,000  Level FlightAware Transoceanic
04:15AM 43.8167 -143.5061 107° East 508 585 47,000  Level FlightAware Transoceanic
04:16AM 43.7764 -143.3192 107° East 508 585 47,000  Level FlightAware Transoceanic
04:17AM 43.7358 -143.1326 107° East 508 585 47,000  Level FlightAware Transoceanic
04:18AM 43.6949 -142.9463 107° East 508 585 47,000  Level FlightAware Transoceanic
04:19AM 43.6537 -142.7602 107° East 508 585 47,000  Level FlightAware Transoceanic
04:20AM 43.6122 -142.5743 107° East 508 585 47,000  Level FlightAware Transoceanic
04:21AM 43.5704 -142.3887 107° East 508 585 47,000  Level FlightAware Transoceanic
04:22AM 43.5283 -142.2034 107° East 508 585 47,000  Level FlightAware Transoceanic
04:23AM 43.4859 -142.0184 108° East 508 585 47,000  Level FlightAware Transoceanic
04:24AM 43.4432 -141.8335 108° East 508 585 47,000  Level FlightAware Transoceanic
04:25AM 43.4002 -141.6490 108° East 508 585 47,000  Level FlightAware Transoceanic
04:26AM 43.3569 -141.4647 108° East 508 585 47,000  Level FlightAware Transoceanic
04:27AM 43.3133 -141.2807 108° East 508 585 47,000  Level FlightAware Transoceanic
04:28AM 43.2694 -141.0969 108° East 508 585 47,000  Level FlightAware Transoceanic
04:29AM 43.2253 -140.9134 108° East 508 585 47,000  Level FlightAware Transoceanic
04:30AM 43.1808 -140.7302 108° East 508 585 47,000  Level FlightAware Transoceanic
04:31AM 43.1360 -140.5473 109° East 508 585 47,000  Level FlightAware Transoceanic
04:32AM 43.0910 -140.3646 109° East 508 585 47,000  Level FlightAware Transoceanic
04:33AM 43.0456 -140.1821 109° East 508 585 47,000  Level FlightAware Transoceanic
04:34AM 43.0000 -140.0000 108° East 508 585 47,000  Level FlightAware Transoceanic
04:35AM 42.9551 -139.8167 109° East 508 585 47,000  Level FlightAware Transoceanic
04:36AM 42.9099 -139.6337 109° East 508 585 47,000  Level FlightAware Transoceanic
04:37AM 42.8644 -139.4509 109° East 508 585 47,000  Level FlightAware Transoceanic
04:38AM 42.8186 -139.2684 109° East 508 585 47,000  Level FlightAware Transoceanic
04:38AM 43.0000 -140.0000 108° East 501 577 47,000  Level Oakland Oceanic (ODAPS)
04:39AM 42.7725 -139.0862 109° East 508 585 47,000  Level FlightAware Transoceanic
04:40AM 42.7261 -138.9043 109° East 508 585 47,000  Level FlightAware Transoceanic
04:41AM 42.6794 -138.7226 109° East 508 585 47,000  Level FlightAware Transoceanic
04:42AM 42.6325 -138.5412 109° East 508 585 47,000  Level FlightAware Transoceanic
04:43AM 42.5853 -138.3600 110° East 508 585 47,000  Level FlightAware Transoceanic
04:44AM 42.5460 -138.2103 110° East 501 577 47,000  Level FlightAware Transoceanic
04:45AM 42.4990 -138.0328 110° East 501 577 47,000  Level FlightAware Transoceanic
04:46AM 42.4518 -137.8556 110° East 501 577 47,000  Level FlightAware Transoceanic
04:47AM 42.4043 -137.6786 110° East 501 577 47,000  Level FlightAware Transoceanic
04:48AM 42.3566 -137.5019 110° East 501 577 47,000  Level FlightAware Transoceanic
04:49AM 42.3086 -137.3255 110° East 501 577 47,000  Level FlightAware Transoceanic
04:50AM 42.2603 -137.1493 110° East 501 577 47,000  Level FlightAware Transoceanic
04:51AM 42.2117 -136.9734 111° Southeast 501 577 47,000  Level FlightAware Transoceanic
04:52AM 42.1629 -136.7977 111° Southeast 501 577 47,000  Level FlightAware Transoceanic
04:53AM 42.1138 -136.6224 111° Southeast 501 577 47,000  Level FlightAware Transoceanic
04:54AM 42.0645 -136.4473 111° Southeast 501 577 47,000  Level FlightAware Transoceanic
04:55AM 42.0148 -136.2725 111° Southeast 501 577 47,000  Level FlightAware Transoceanic
04:56AM 41.9649 -136.0979 111° Southeast 501 577 47,000  Level FlightAware Transoceanic
04:57AM 41.9148 -135.9237 111° Southeast 501 577 47,000  Level FlightAware Transoceanic
04:58AM 41.8644 -135.7497 111° Southeast 501 577 47,000  Level FlightAware Transoceanic
04:59AM 41.8137 -135.5760 111° Southeast 501 577 47,000  Level FlightAware Transoceanic
05:00AM 41.7627 -135.4025 112° Southeast 501 577 47,000  Level FlightAware Transoceanic
05:01AM 41.7116 -135.2294 112° Southeast 501 577 47,000  Level FlightAware Transoceanic
05:02AM 41.6601 -135.0565 112° Southeast 501 577 47,000  Level FlightAware Transoceanic
05:03AM 41.6084 -134.8839 112° Southeast 501 577 47,000  Level FlightAware Transoceanic
05:04AM 41.5564 -134.7115 112° Southeast 501 577 47,000  Level FlightAware Transoceanic
05:05AM 41.5042 -134.5395 112° Southeast 501 577 47,000  Level FlightAware Transoceanic
05:06AM 41.4517 -134.3677 112° Southeast 501 577 47,000  Level FlightAware Transoceanic
05:07AM 41.3989 -134.1962 112° Southeast 501 577 47,000  Level FlightAware Transoceanic
05:08AM 41.3459 -134.0250 112° Southeast 501 577 47,000  Level FlightAware Transoceanic
05:09AM 41.2927 -133.8540 113° Southeast 501 577 47,000  Level FlightAware Transoceanic
05:10AM 41.2392 -133.6834 113° Southeast 501 577 47,000  Level FlightAware Transoceanic
05:11AM 41.1854 -133.5130 113° Southeast 501 577 47,000  Level FlightAware Transoceanic
05:12AM 41.1314 -133.3429 113° Southeast 501 577 47,000  Level FlightAware Transoceanic
05:13AM 41.0772 -133.1730 113° Southeast 501 577 47,000  Level FlightAware Transoceanic
05:14AM 41.0227 -133.0035 113° Southeast 501 577 47,000  Level FlightAware Transoceanic
05:15AM 40.9679 -132.8342 113° Southeast 501 577 47,000  Level FlightAware Transoceanic
05:16AM 40.9129 -132.6653 113° Southeast 501 577 47,000  Level FlightAware Transoceanic
05:17AM 40.8577 -132.4966 113° Southeast 501 577 47,000  Level FlightAware Transoceanic
05:18AM 40.8022 -132.3282 114° Southeast 501 577 47,000  Level FlightAware Transoceanic
05:19AM 40.7464 -132.1600 114° Southeast 501 577 47,000  Level FlightAware Transoceanic
05:20AM 40.6904 -131.9922 114° Southeast 501 577 47,000  Level FlightAware Transoceanic
05:21AM 40.6342 -131.8246 114° Southeast 501 577 47,000  Level FlightAware Transoceanic
05:22AM 40.5778 -131.6573 114° Southeast 501 577 47,000  Level FlightAware Transoceanic
05:23AM 40.5210 -131.4903 114° Southeast 501 577 47,000  Level FlightAware Transoceanic
05:24AM 40.4641 -131.3236 114° Southeast 501 577 47,000  Level FlightAware Transoceanic
05:25AM 40.4069 -131.1571 114° Southeast 501 577 47,000  Level FlightAware Transoceanic
05:26AM 40.3495 -130.9910 114° Southeast 501 577 47,000  Level FlightAware Transoceanic
05:27AM 40.2918 -130.8251 115° Southeast 501 577 47,000  Level FlightAware Transoceanic
05:28AM 40.2339 -130.6595 115° Southeast 501 577 47,000  Level FlightAware Transoceanic
05:29AM 40.1758 -130.4942 115° Southeast 501 577 47,000  Level FlightAware Transoceanic
05:30AM 40.1174 -130.3292 115° Southeast 501 577 47,000  Level FlightAware Transoceanic
05:31AM 40.0588 -130.1644 115° Southeast 501 577 47,000  Level FlightAware Transoceanic
05:32AM 40.0000 -130.0000 114° Southeast 501 577 47,000  Level FlightAware Transoceanic
05:33AM 39.9411 -129.8279 114° Southeast 501 577 47,000  Level FlightAware Transoceanic
05:34AM 39.8820 -129.6561 114° Southeast 501 577 47,000  Level FlightAware Transoceanic
05:35AM 39.8226 -129.4845 114° Southeast 501 577 47,000  Level FlightAware Transoceanic
05:36AM 39.7629 -129.3133 114° Southeast 501 577 47,000  Level FlightAware Transoceanic
05:37AM 39.7030 -129.1423 115° Southeast 501 577 47,000  Level FlightAware Transoceanic
05:38AM 39.6428 -128.9717 115° Southeast 501 577 47,000  Level FlightAware Transoceanic
05:39AM 39.5824 -128.8014 115° Southeast 501 577 47,000  Level FlightAware Transoceanic
05:40AM 39.5218 -128.6313 115° Southeast 501 577 47,000  Level FlightAware Transoceanic
05:41AM 39.4609 -128.4616 115° Southeast 501 577 47,000  Level FlightAware Transoceanic
05:42AM 39.3997 -128.2921 115° Southeast 501 577 47,000  Level FlightAware Transoceanic
05:43AM 39.3383 -128.1230 115° Southeast 501 577 47,000  Level FlightAware Transoceanic
05:43AM 40.0000 -130.0000 114° Southeast 509 586 47,000  Level Oakland Oceanic (ODAPS)
05:44AM 39.2767 -127.9541 115° Southeast 501 577 47,000  Level FlightAware Transoceanic
05:45AM 39.2148 -127.7856 115° Southeast 501 577 47,000  Level FlightAware Transoceanic
05:46AM 39.1527 -127.6173 116° Southeast 501 577 47,000  Level FlightAware Transoceanic
05:47AM 39.0904 -127.4493 116° Southeast 501 577 47,000  Level FlightAware Transoceanic
05:48AM 39.0277 -127.2817 116° Southeast 501 577 47,000  Level FlightAware Transoceanic
05:49AM 38.9649 -127.1143 116° Southeast 501 577 47,000  Level FlightAware Transoceanic
05:50AM 38.9892 -127.1789 116° Southeast 509 586 47,000  Level FlightAware Transoceanic
05:50AM 38.9956 -127.1828 116° Southeast 511 588 47,000  Level Oakland Center
05:51AM 38.9277 -127.0156 116° Southeast 509 586 47,000  Level FlightAware Transoceanic
05:51AM 38.9333 -127.0194 116° Southeast 511 588 47,000  Level Oakland Center
05:52AM 38.8659 -126.8524 116° Southeast 509 586 47,000  Level FlightAware Transoceanic
05:52AM 38.8686 -126.8569 117° Southeast 511 588 47,000  Level Oakland Center
05:53AM 38.8039 -126.6896 116° Southeast 509 586 47,000  Level FlightAware Transoceanic
05:53AM 38.8014 -126.7006 119° Southeast 506 582 47,000  Level Oakland Center
05:54AM 38.7416 -126.5271 116° Southeast 509 586 47,000  Level FlightAware Transoceanic
05:54AM 38.7342 -126.5406 118° Southeast 509 586 47,000  Level Oakland Center
05:55AM 38.6792 -126.3648 116° Southeast 509 586 47,000  Level FlightAware Transoceanic
05:55AM 38.6678 -126.3831 118° Southeast 506 582 47,000  Level Oakland Center
05:56AM 38.5983 -126.2228 119° Southeast 513 590 47,000  Level Oakland Center
05:57AM 38.5256 -126.0531 119° Southeast 511 588 47,000  Level Oakland Center
05:58AM 38.4569 -125.8947 119° Southeast 511 588 47,000  Level Oakland Center
05:59AM 38.3947 -125.7508 119° Southeast 508 585 47,000  Level Oakland Center
06:00AM 38.3200 -125.5803 119° Southeast 510 587 47,000  Level Oakland Center
06:01AM 38.2519 -125.4214 119° Southeast 512 589 47,000  Level Oakland Center
06:02AM 38.1819 -125.2642 119° Southeast 513 590 47,000  Level Oakland Center
06:03AM 38.1119 -125.1069 119° Southeast 513 590 47,000  Level Oakland Center
06:04AM 38.0433 -124.9506 119° Southeast 510 587 47,000  Level Oakland Center
06:05AM 37.9744 -124.7950 119° Southeast 509 586 47,000  Level Oakland Center
06:06AM 37.9044 -124.6414 120° Southeast 508 585 47,000  Level Oakland Center
06:07AM 37.8347 -124.4875 120° Southeast 508 585 47,000  Level Oakland Center
06:08AM 37.7658 -124.3333 119° Southeast 505 581 47,000  Level Oakland Center
06:09AM 37.6947 -124.1781 120° Southeast 511 588 47,000  Level Oakland Center
06:10AM 37.6242 -124.0231 120° Southeast 512 589 47,000  Level Oakland Center
06:11AM 37.5533 -123.8692 120° Southeast 512 589 47,000  Level Oakland Center
06:12AM 37.4811 -123.7136 120° Southeast 515 593 47,000  Level Oakland Center
06:13AM 37.4089 -123.5575 120° Southeast 518 596 47,000  Level Oakland Center
06:14AM 37.3361 -123.4036 121° Southeast 517 595 47,000  Level Oakland Center
06:15AM 37.2608 -123.2439 121° Southeast 529 609 47,000  Level Oakland Center
06:16AM 37.1875 -123.0892 121° Southeast 521 600 47,000  Level Oakland Center
06:17AM 37.1014 -122.9050 120° Southeast 516 594 47,000  Level Oakland Center
06:18AM 37.0283 -122.7547 121° Southeast 511 588 47,000  Level Oakland Center
06:19AM 36.9544 -122.6028 121° Southeast 512 589 47,000  Level Oakland Center
06:20AM 36.8819 -122.4464 120° Southeast 518 596 47,000  Level Oakland Center
06:21AM 36.8075 -122.2903 121° Southeast 525 604 47,000  Level Oakland Center
06:22AM 36.7339 -122.1386 121° Southeast 517 595 47,000  Level Oakland Center
06:23AM 36.6569 -121.9906 123° Southeast 513 590 47,000  Level Oakland Center
06:24AM 36.5828 -121.8381 121° Southeast 516 594 47,000  Level Oakland Center
06:25AM 36.5194 -121.7067 121° Southeast 516 594 47,000  Level Oakland Center
06:26AM 36.4442 -121.5547 122° Southeast 517 595 47,000  Level Oakland Center
06:27AM 36.3539 -121.3717 121° Southeast 519 597 47,000  Level Oakland Center
06:28AM 36.2803 -121.2206 121° Southeast 515 593 47,000  Level Oakland Center
06:29AM 36.2056 -121.0703 122° Southeast 513 590 47,000  Level Oakland Center
06:30AM 36.1303 -120.9192 122° Southeast 515 593 47,000  Level Oakland Center
06:31AM 36.0539 -120.7672 122° Southeast 517 595 47,000  Level Oakland Center
06:32AM 35.9764 -120.6158 122° Southeast 519 597 47,000  Level Oakland Center
06:33AM 35.9167 -120.4953 121° Southeast 517 595 47,000  Level Oakland Center
06:34AM 35.8389 -120.3447 122° Southeast 518 596 47,000  Level Oakland Center
06:35AM 35.7628 -120.1956 122° Southeast 514 592 47,000  Level Oakland Center
06:36AM 35.6842 -120.0422 122° Southeast 521 600 47,000  Level Oakland Center
06:37AM 35.6064 -119.8917 122° Southeast 519 597 47,000  Level Oakland Center
06:38AM 35.5286 -119.7428 123° Southeast 515 593 47,000  Level Oakland Center
06:39AM 35.4514 -119.5964 123° Southeast 510 587 47,000  Level Oakland Center
06:40AM 35.3811 -119.4436 119° Southeast 512 589 47,000  Level Oakland Center
06:40AM 35.3617 -119.3789 110° East 513 590 47,000  Level Los Angeles Center
06:41AM 35.3044 -119.2189 114° Southeast 514 592 47,000  Level Los Angeles Center
06:43AM 35.2097 -118.9608 114° Southeast 515 593 47,000  Level Oakland Center
06:44AM 35.1519 -118.8014 114° Southeast 513 590 47,000  Level Oakland Center
06:45AM 35.0936 -118.6422 114° Southeast 513 590 47,000  Level Oakland Center
06:45AM 35.0706 -118.5792 114° Southeast 514 592 47,000  Level Los Angeles Center
06:46AM 35.0142 -118.4228 114° Southeast 512 589 47,000  Level Los Angeles Center
06:47AM 34.9558 -118.2644 114° Southeast 514 592 47,000  Level Los Angeles Center
06:48AM 34.8975 -118.1078 114° Southeast 514 592 47,000  Level Los Angeles Center
06:49AM 34.8389 -117.9519 115° Southeast 513 590 47,000  Level Los Angeles Center
06:50AM 34.7806 -117.7967 115° Southeast 513 590 47,000  Level Los Angeles Center
06:51AM 34.7214 -117.6394 115° Southeast 516 594 47,000  Level Los Angeles Center
06:52AM 34.6628 -117.4839 115° Southeast 514 592 47,000  Level Los Angeles Center
06:53AM 34.6031 -117.3264 115° Southeast 516 594 47,000  Level Los Angeles Center
06:54AM 34.5458 -117.1742 114° Southeast 505 581 47,000  Level Los Angeles Center
06:55AM 34.4864 -117.0181 115° Southeast 515 593 47,000  Level Los Angeles Center
06:56AM 34.4269 -116.8617 115° Southeast 515 593 47,000  Level Los Angeles Center
06:57AM 34.3678 -116.7042 114° Southeast 518 596 47,000  Level Los Angeles Center
06:58AM 34.3081 -116.5483 115° Southeast 515 593 47,000  Level Los Angeles Center
06:59AM 34.2494 -116.3986 115° Southeast 500 575 47,000  Level Los Angeles Center
07:00AM 34.1906 -116.2492 115° Southeast 495 570 47,000 -60 Level Los Angeles Center
07:01AM 34.1314 -116.0986 115° Southeast 497 572 46,900  Descending Los Angeles Center
07:02AM 34.0708 -115.9444 115° Southeast 485 558 47,000  Climbing Los Angeles Center
07:03AM 34.0089 -115.7897 116° Southeast 505 581 47,000 -120 Level Los Angeles Center
07:04AM 33.9481 -115.6386 116° Southeast 503 579 46,800 -1,200 Descending Los Angeles Center
07:05AM 33.8875 -115.4881 116° Southeast 501 577 44,600 -2,280 Descending Los Angeles Center
07:06AM 33.8278 -115.3356 115° Southeast 503 579 42,300 -2,220 Descending Los Angeles Center
07:07AM 33.7667 -115.1892 117° Southeast 492 566 40,200 -2,100 Descending Los Angeles Center
07:08AM 33.7097 -115.0433 115° Southeast 485 558 38,100 -2,160 Descending Los Angeles Center
07:09AM 33.6494 -114.8969 116° Southeast 490 564 35,900 -2,220 Descending Los Angeles Center
07:10AM 33.5931 -114.7494 115° Southeast 489 563 33,700 -2,220 Descending Los Angeles Center
07:11AM 33.5606 -114.5881 104° East 498 573 31,500 -2,220 Descending Los Angeles Center
07:13AM 33.5297 -114.4253 103° East 503 579 29,300 -2,220 Descending Los Angeles Center
07:14AM 33.4958 -114.2619 104° East 506 582 27,100 -2,100 Descending Los Angeles Center
07:15AM 33.4683 -114.1158 103° East 452 520 25,100 -1,260 Descending Los Angeles Center
07:15AM 33.4525 -114.0217 101° East 438 504 25,000 -60 Descending Albuquerque Center
07:16AM 33.4247 -113.8839 104° East 428 493 25,000 -300 Level Albuquerque Center
07:17AM 33.4206 -113.7400 92° East 432 497 24,500 -720 Descending Albuquerque Center
07:18AM 33.4225 -113.5972 89° East 429 494 23,600 -1,080 Descending Albuquerque Center
07:19AM 33.4247 -113.4453 89° East 448 516 22,400 -1,740 Descending Albuquerque Center
07:20AM 33.4256 -113.2886 90° East 467 537 20,100 -2,400 Descending Albuquerque Center
07:21AM 33.4269 -113.1375 89° East 459 528 17,700 -2,280 Descending Albuquerque Center
07:22AM 33.4286 -112.9903 89° East 448 516 15,600 -2,100 Descending Albuquerque Center
07:23AM 33.4289 -112.8481 90° East 433 498 13,500 -2,040 Descending Albuquerque Center
07:24AM 33.4297 -112.7122 90° East 417 480 11,500 -1,260 Descending Albuquerque Center
07:25AM 33.4308 -112.5836 89° East 387 445 11,000 -480 Descending Albuquerque Center
07:26AM 33.4306 -112.4728 90° East 339 390 10,600 -1,440 Descending Albuquerque Center
07:27AM 33.4314 -112.3694 89° East 315 362 8,200 -2,520 Descending Albuquerque Center
07:28AM 33.4311 -112.2750 90° East 289 333 5,600 -2,220 Descending Albuquerque Center
07:29AM 33.4303 -112.1897 91° East 256 295 3,800 -1,500 Descending Albuquerque Center
07:30AM 33.4308 -112.1194 89° East 215 247 2,600 -1,020 Descending Albuquerque Center
07:31AM 33.4308 -112.0672 90° East 154 177 1,800 -720 Descending Albuquerque Center
07:32AM 33.4314 -112.0297 89° East 116 133 1,200 -600 Descending Albuquerque Center
07:34AM 33.4343 -112.0116 90° East  Level Estimated